createdAt,value
2019-04-04T00:00:32.359Z,14.80
2019-04-04T00:05:31.919Z,14.70
2019-04-04T00:10:32.837Z,14.70
2019-04-04T00:15:32.986Z,15.00
2019-04-04T00:20:32.662Z,14.70
2019-04-04T00:25:32.215Z,14.50
2019-04-04T00:30:32.850Z,14.50
2019-04-04T00:35:34.683Z,14.50
2019-04-04T00:40:36.828Z,14.50
2019-04-04T00:45:37.205Z,14.40
2019-04-04T00:50:39.107Z,14.40
2019-04-04T00:55:40.348Z,14.40
2019-04-04T01:00:40.038Z,14.30
2019-04-04T01:05:39.594Z,14.20
2019-04-04T01:10:39.165Z,14.20
2019-04-04T01:15:38.733Z,14.30
2019-04-04T01:20:41.024Z,14.20
2019-04-04T01:25:43.114Z,14.10
2019-04-04T01:30:43.589Z,14.10
2019-04-04T01:35:43.753Z,14.10
2019-04-04T01:40:45.547Z,14.10
2019-04-04T01:45:45.326Z,14.00
2019-04-04T01:50:58.222Z,14.00
2019-04-04T01:56:00.324Z,14.00
2019-04-04T02:01:00.011Z,13.90
2019-04-04T02:05:59.600Z,13.90
2019-04-04T02:10:59.145Z,13.80
2019-04-04T02:15:58.697Z,13.80
2019-04-04T02:20:58.480Z,13.70
2019-04-04T02:26:00.672Z,13.50
2019-04-04T02:31:00.561Z,13.40
2019-04-04T02:36:00.120Z,13.40
2019-04-04T02:40:59.684Z,13.40
2019-04-04T02:45:59.400Z,13.40
2019-04-04T02:50:58.971Z,13.30
2019-04-04T02:56:02.213Z,13.20
2019-04-04T03:01:00.592Z,13.30
2019-04-04T03:06:00.217Z,13.20
2019-04-04T03:10:59.788Z,13.10
2019-04-04T03:15:59.359Z,13.00
2019-04-04T03:20:58.937Z,13.00
2019-04-04T03:25:58.489Z,13.00
2019-04-04T03:31:02.413Z,12.90
2019-04-04T03:36:01.094Z,12.80
2019-04-04T03:41:00.550Z,12.70
2019-04-04T03:46:01.347Z,12.50
2019-04-04T03:51:04.745Z,12.50
2019-04-04T03:56:02.570Z,12.40
2019-04-04T04:01:02.266Z,12.30
2019-04-04T04:06:01.846Z,12.10
2019-04-04T04:11:04.868Z,12.10
2019-04-04T04:16:03.849Z,12.20
2019-04-04T04:21:09.696Z,12.20
2019-04-04T04:26:09.373Z,12.20
2019-04-04T04:31:07.178Z,12.10
2019-04-04T04:36:09.805Z,12.10
2019-04-04T04:41:07.990Z,12.00
2019-04-04T04:46:07.535Z,12.00
2019-04-04T04:51:07.099Z,11.90
2019-04-04T04:56:06.663Z,12.00
2019-04-04T05:01:06.226Z,11.90
2019-04-04T05:06:05.778Z,11.90
2019-04-04T05:11:05.322Z,12.00
2019-04-04T05:16:08.551Z,12.00
2019-04-04T05:21:06.397Z,12.10
2019-04-04T05:26:05.937Z,12.20
2019-04-04T05:31:06.453Z,12.10
2019-04-04T05:36:06.079Z,12.10
2019-04-04T05:41:05.982Z,12.20
2019-04-04T05:46:05.707Z,12.30
2019-04-04T05:51:05.305Z,12.40
2019-04-04T05:56:06.441Z,12.40
2019-04-04T06:01:08.187Z,12.40
2019-04-04T06:06:10.371Z,12.40
2019-04-04T06:11:08.977Z,12.70
2019-04-04T06:21:27.192Z,13.00
2019-04-04T06:26:26.737Z,13.10
2019-04-04T06:31:27.981Z,13.10
2019-04-04T06:36:27.543Z,13.30
2019-04-04T06:41:28.334Z,13.20
2019-04-04T06:46:28.120Z,13.30
2019-04-04T06:51:27.670Z,13.40
2019-04-04T06:56:31.798Z,13.40
2019-04-04T07:01:30.587Z,13.40
2019-04-04T07:06:30.209Z,13.60
2019-04-04T07:11:29.757Z,13.70
2019-04-04T07:16:30.607Z,13.90
2019-04-04T07:21:30.190Z,13.90
2019-04-04T07:26:29.746Z,14.10
2019-04-04T07:31:33.183Z,14.40
2019-04-04T07:36:31.001Z,14.60
2019-04-04T07:41:30.676Z,14.50
2019-04-04T07:46:30.783Z,14.50
2019-04-04T07:51:30.936Z,14.80
2019-04-04T07:56:31.866Z,15.00
2019-04-04T08:01:32.493Z,15.10
2019-04-04T08:06:32.069Z,15.20
2019-04-04T08:11:31.614Z,15.40
2019-04-04T08:16:31.161Z,15.40
2019-04-04T08:21:30.731Z,15.40
2019-04-04T08:26:30.261Z,15.50
2019-04-04T08:31:29.816Z,15.90
2019-04-04T08:36:29.369Z,16.30
2019-04-04T08:41:30.033Z,16.80
2019-04-04T08:46:30.172Z,17.10
2019-04-04T08:51:29.809Z,17.80
2019-04-04T08:56:29.352Z,18.40
2019-04-04T09:01:28.928Z,19.00
2019-04-04T09:06:29.599Z,19.50
2019-04-04T09:11:29.722Z,19.70
2019-04-04T09:16:30.102Z,20.00
2019-04-04T09:21:29.719Z,20.40
2019-04-04T09:26:29.262Z,21.10
2019-04-04T09:31:29.427Z,21.90
2019-04-04T09:36:29.090Z,22.30
2019-04-04T09:41:28.748Z,22.10
2019-04-04T09:46:28.286Z,21.70
2019-04-04T09:51:27.856Z,21.50
2019-04-04T09:56:27.493Z,22.20
2019-04-04T10:01:27.055Z,22.30
2019-04-04T10:06:26.605Z,22.50
2019-04-04T10:11:26.163Z,22.20
2019-04-04T10:16:25.735Z,22.70
2019-04-04T10:21:25.294Z,22.60
2019-04-04T10:26:24.870Z,23.40
2019-04-04T10:31:24.407Z,22.80
2019-04-04T10:36:24.045Z,22.10
2019-04-04T10:41:24.346Z,23.00
2019-04-04T10:46:23.904Z,23.60
2019-04-04T10:51:24.123Z,24.60
2019-04-04T10:56:25.181Z,26.30
2019-04-04T11:01:24.841Z,26.60
2019-04-04T11:06:24.523Z,25.60
2019-04-04T11:11:25.163Z,25.60
2019-04-04T11:16:30.385Z,24.70
2019-04-04T11:21:26.042Z,24.40
2019-04-04T11:26:25.722Z,23.70
2019-04-04T11:31:25.425Z,23.60
2019-04-04T11:36:24.989Z,24.40
2019-04-04T11:41:24.575Z,23.70
2019-04-04T11:46:24.121Z,23.80
2019-04-04T11:51:23.645Z,24.20
2019-04-04T11:56:23.229Z,23.40
2019-04-04T12:01:23.808Z,22.60
2019-04-04T12:06:23.362Z,22.20
2019-04-04T12:11:22.953Z,22.40
2019-04-04T12:16:22.618Z,23.00
2019-04-04T12:21:22.175Z,23.20
2019-04-04T12:26:21.729Z,24.20
2019-04-04T12:31:21.284Z,24.30
2019-04-04T12:36:24.774Z,24.10
2019-04-04T12:41:22.085Z,24.20
2019-04-04T12:46:21.667Z,24.40
2019-04-04T12:51:21.231Z,24.40
2019-04-04T12:56:20.796Z,24.40
2019-04-04T13:01:21.460Z,24.20
2019-04-04T13:06:21.314Z,24.00
2019-04-04T13:11:20.866Z,23.90
2019-04-04T13:16:20.423Z,24.00
2019-04-04T13:21:21.500Z,23.90
2019-04-04T13:26:21.494Z,23.90
2019-04-04T13:31:21.040Z,23.40
2019-04-04T13:36:20.597Z,23.40
2019-04-04T13:41:22.101Z,23.50
2019-04-04T13:46:24.526Z,23.40
2019-04-04T13:51:25.366Z,23.70
2019-04-04T13:56:23.908Z,23.60
2019-04-04T14:01:25.365Z,23.70
2019-04-04T14:06:24.877Z,24.00
2019-04-04T14:11:24.426Z,24.00
2019-04-04T14:16:23.976Z,24.20
2019-04-04T14:21:24.489Z,24.80
2019-04-04T14:26:24.070Z,24.80
2019-04-04T14:31:23.737Z,25.00
2019-04-04T14:36:23.363Z,25.20
2019-04-04T14:41:22.905Z,25.40
2019-04-04T14:46:22.526Z,25.30
2019-04-04T14:51:22.081Z,24.50
2019-04-04T14:56:21.653Z,24.50
2019-04-04T15:01:21.202Z,24.80
2019-04-04T15:06:20.752Z,25.10
2019-04-04T15:11:24.256Z,25.50
2019-04-04T15:16:21.581Z,26.10
2019-04-04T15:21:21.135Z,26.70
2019-04-04T15:26:20.754Z,26.00
2019-04-04T15:31:20.305Z,26.00
2019-04-04T15:36:19.901Z,25.90
2019-04-04T15:41:19.473Z,26.10
2019-04-04T15:46:20.702Z,26.60
2019-04-04T15:51:20.326Z,26.30
2019-04-04T15:56:19.895Z,25.20
2019-04-04T16:01:19.477Z,24.70
2019-04-04T16:06:19.099Z,25.20
2019-04-04T16:11:18.689Z,26.20
2019-04-04T16:16:18.248Z,27.50
2019-04-04T16:21:17.808Z,28.10
2019-04-04T16:26:18.426Z,28.40
2019-04-04T16:31:18.797Z,27.90
2019-04-04T16:36:18.363Z,27.10
2019-04-04T16:41:17.975Z,26.00
2019-04-04T16:46:17.621Z,25.90
2019-04-04T16:51:17.169Z,26.10
2019-04-04T16:56:16.723Z,26.00
2019-04-04T17:01:16.345Z,25.40
2019-04-04T17:06:15.896Z,25.30
2019-04-04T17:11:15.445Z,24.70
2019-04-04T17:16:14.989Z,23.80
2019-04-04T17:21:14.581Z,23.20
2019-04-04T17:26:14.148Z,22.60
2019-04-04T17:31:14.831Z,22.20
2019-04-04T17:36:14.489Z,21.90
2019-04-04T17:41:14.043Z,21.70
2019-04-04T17:46:13.703Z,21.40
2019-04-04T17:51:13.467Z,21.20
2019-04-04T17:56:13.349Z,21.10
2019-04-04T18:01:13.736Z,21.00
2019-04-04T18:06:13.800Z,21.00
2019-04-04T18:11:13.360Z,20.80
2019-04-04T18:16:12.912Z,20.70
2019-04-04T18:21:12.545Z,20.50
2019-04-04T18:26:12.105Z,20.40
2019-04-04T18:31:11.697Z,20.30
2019-04-04T18:36:11.621Z,20.20
2019-04-04T18:41:11.285Z,20.00
2019-04-04T18:46:11.841Z,19.90
2019-04-04T18:51:11.403Z,19.70
2019-04-04T18:56:10.960Z,19.50
2019-04-04T19:01:10.584Z,19.30
2019-04-04T19:06:10.293Z,19.30
2019-04-04T19:11:09.817Z,19.20
2019-04-04T19:16:09.365Z,19.20
2019-04-04T19:21:08.942Z,19.20
2019-04-04T19:26:10.855Z,19.10
2019-04-04T19:31:10.741Z,19.10
2019-04-04T19:36:10.372Z,19.10
2019-04-04T19:41:09.998Z,19.00
2019-04-04T19:46:09.652Z,18.90
2019-04-04T19:51:09.267Z,18.80
2019-04-04T19:56:08.819Z,18.70
2019-04-04T20:01:08.494Z,18.70
2019-04-04T20:06:08.171Z,18.70
2019-04-04T20:11:07.763Z,18.60
2019-04-04T20:16:07.358Z,18.50
2019-04-04T20:21:06.922Z,18.50
2019-04-04T20:26:06.480Z,18.40
2019-04-04T20:31:06.042Z,18.40
2019-04-04T20:36:06.202Z,18.30
2019-04-04T20:41:06.563Z,18.30
2019-04-04T20:46:06.150Z,18.20
2019-04-04T20:51:06.449Z,18.20
2019-04-04T20:56:06.041Z,18.20
2019-04-04T21:01:05.671Z,18.10
2019-04-04T21:06:05.322Z,18.00
2019-04-04T21:11:05.040Z,18.00
2019-04-04T21:16:05.258Z,17.90
2019-04-04T21:21:05.029Z,17.80
2019-04-04T21:26:04.824Z,17.80
2019-04-04T21:31:04.543Z,17.80
2019-04-04T21:36:05.287Z,17.80
2019-04-04T21:41:05.032Z,17.60
2019-04-04T21:46:04.762Z,17.60
2019-04-04T21:51:04.379Z,17.50
2019-04-04T21:56:03.940Z,17.50
2019-04-04T22:01:23.293Z,17.50
2019-04-04T22:06:24.462Z,17.40
2019-04-04T22:11:24.030Z,17.30
2019-04-04T22:16:23.573Z,17.20
2019-04-04T22:21:23.150Z,17.20
2019-04-04T22:26:22.685Z,17.20
2019-04-04T22:31:22.241Z,17.20
2019-04-04T22:36:21.811Z,17.10
2019-04-04T22:41:21.489Z,17.00
2019-04-04T22:46:21.061Z,17.00
2019-04-04T22:51:20.682Z,16.90
2019-04-04T22:56:20.228Z,16.90
2019-04-04T23:01:19.786Z,16.80
2019-04-04T23:06:19.349Z,16.80
2019-04-04T23:11:18.937Z,16.70
2019-04-04T23:16:18.496Z,16.60
2019-04-04T23:21:18.062Z,16.40
2019-04-04T23:26:17.597Z,16.30
2019-04-04T23:31:17.146Z,16.30
2019-04-04T23:36:16.714Z,16.20
2019-04-04T23:41:16.277Z,16.10
2019-04-04T23:46:15.829Z,16.00
2019-04-04T23:51:16.521Z,15.90
2019-04-04T23:56:16.068Z,15.80
